createdAt,value
2019-04-27T00:00:00.279Z,1001.75
2019-04-27T00:01:00.089Z,1001.71
2019-04-27T00:02:00.095Z,1001.72
2019-04-27T00:03:02.106Z,1001.69
2019-04-27T00:04:00.053Z,1001.70
2019-04-27T00:05:00.042Z,1001.68
2019-04-27T00:06:00.031Z,1001.67
2019-04-27T00:07:00.019Z,1001.71
2019-04-27T00:08:00.010Z,1001.74
2019-04-27T00:09:00.015Z,1001.72
2019-04-27T00:09:59.984Z,1001.65
2019-04-27T00:11:05.145Z,1001.66
2019-04-27T00:12:00.961Z,1001.65
2019-04-27T00:13:02.231Z,1001.68
2019-04-27T00:14:00.952Z,1001.65
2019-04-27T00:14:59.924Z,1001.65
2019-04-27T00:16:05.611Z,1001.66
2019-04-27T00:17:00.900Z,1001.64
2019-04-27T00:17:59.916Z,1001.64
2019-04-27T00:18:59.900Z,1001.62
2019-04-27T00:19:59.866Z,1001.58
2019-04-27T00:20:59.860Z,1001.56
2019-04-27T00:21:59.850Z,1001.62
2019-04-27T00:22:59.833Z,1001.54
2019-04-27T00:23:59.843Z,1001.50
2019-04-27T00:24:59.810Z,1001.51
2019-04-27T00:25:59.797Z,1001.54
2019-04-27T00:26:59.802Z,1001.51
2019-04-27T00:27:59.776Z,1001.51
2019-04-27T00:28:59.762Z,1001.48
2019-04-27T00:29:59.770Z,1001.49
2019-04-27T00:30:59.739Z,1001.50
2019-04-27T00:31:59.728Z,1001.44
2019-04-27T00:32:59.716Z,1001.51
2019-04-27T00:33:59.715Z,1001.49
2019-04-27T00:34:59.711Z,1001.47
2019-04-27T00:35:59.682Z,1001.57
2019-04-27T00:36:59.672Z,1001.41
2019-04-27T00:37:59.658Z,1001.41
2019-04-27T00:38:59.647Z,1001.44
2019-04-27T00:39:59.655Z,1001.42
2019-04-27T00:40:59.625Z,1001.44
2019-04-27T00:41:59.614Z,1001.39
2019-04-27T00:42:59.601Z,1001.37
2019-04-27T00:43:59.587Z,1001.34
2019-04-27T00:44:59.596Z,1001.42
2019-04-27T00:45:59.568Z,1001.43
2019-04-27T00:46:59.554Z,1001.40
2019-04-27T00:47:59.993Z,1001.41
2019-04-27T00:48:59.531Z,1001.34
2019-04-27T00:49:59.542Z,1001.39
2019-04-27T00:50:59.507Z,1001.38
2019-04-27T00:51:59.495Z,1001.30
2019-04-27T00:52:59.485Z,1001.31
2019-04-27T00:53:59.473Z,1001.33
2019-04-27T00:54:59.467Z,1001.41
2019-04-27T00:55:59.475Z,1001.29
2019-04-27T00:56:59.438Z,1001.33
2019-04-27T00:57:59.425Z,1001.28
2019-04-27T00:58:59.413Z,1001.34
2019-04-27T00:59:59.410Z,1001.30
2019-04-27T01:00:59.410Z,1001.34
2019-04-27T01:01:59.380Z,1001.28
2019-04-27T01:02:59.366Z,1001.26
2019-04-27T01:03:59.354Z,1001.20
2019-04-27T01:04:59.345Z,1001.24
2019-04-27T01:05:59.350Z,1001.17
2019-04-27T01:06:59.320Z,1001.20
2019-04-27T01:07:59.306Z,1001.24
2019-04-27T01:08:59.295Z,1001.13
2019-04-27T01:09:59.283Z,1001.23
2019-04-27T01:10:59.292Z,1001.15
2019-04-27T01:11:59.261Z,1001.19
2019-04-27T01:12:59.249Z,1001.15
2019-04-27T01:13:59.238Z,1001.09
2019-04-27T01:14:59.227Z,1001.10
2019-04-27T01:15:59.234Z,1001.03
2019-04-27T01:16:59.859Z,1001.14
2019-04-27T01:18:11.604Z,1001.09
2019-04-27T01:19:00.178Z,1001.04
2019-04-27T01:19:59.611Z,1001.11
2019-04-27T01:20:59.173Z,1001.03
2019-04-27T01:21:59.143Z,1001.06
2019-04-27T01:22:59.491Z,1001.03
2019-04-27T01:23:59.119Z,1000.99
2019-04-27T01:24:59.479Z,1000.97
2019-04-27T01:25:59.732Z,1000.92
2019-04-27T01:27:00.007Z,1000.93
2019-04-27T01:27:59.639Z,1000.94
2019-04-27T01:28:59.210Z,1000.91
2019-04-27T01:29:59.048Z,1000.89
2019-04-27T01:31:00.604Z,1000.94
2019-04-27T01:31:59.025Z,1000.95
2019-04-27T01:32:59.567Z,1000.92
2019-04-27T01:33:59.105Z,1000.90
2019-04-27T01:34:59.219Z,1000.89
2019-04-27T01:35:59.027Z,1000.85
2019-04-27T01:36:59.483Z,1000.86
2019-04-27T01:37:59.070Z,1000.89
2019-04-27T01:38:59.548Z,1000.84
2019-04-27T01:39:59.117Z,1000.87
2019-04-27T01:41:00.624Z,1000.88
2019-04-27T01:41:59.131Z,1000.80
2019-04-27T01:42:59.013Z,1000.87
2019-04-27T01:43:59.173Z,1000.84
2019-04-27T01:44:59.504Z,1000.85
2019-04-27T01:46:01.124Z,1000.82
2019-04-27T01:46:59.905Z,1000.76
2019-04-27T01:47:59.582Z,1000.88
2019-04-27T01:48:59.137Z,1000.83
2019-04-27T01:49:58.818Z,1000.84
2019-04-27T01:50:59.327Z,1000.83
2019-04-27T01:51:59.477Z,1000.82
2019-04-27T01:52:58.862Z,1000.83
2019-04-27T01:53:59.382Z,1000.78
2019-04-27T01:54:59.486Z,1000.81
2019-04-27T01:55:59.185Z,1000.74
2019-04-27T01:57:00.669Z,1000.83
2019-04-27T01:57:58.719Z,1000.78
2019-04-27T01:58:59.519Z,1000.66
2019-04-27T01:59:59.021Z,1000.70
2019-04-27T02:00:59.473Z,1000.75
2019-04-27T02:01:58.853Z,1000.66
2019-04-27T02:02:59.539Z,1000.73
2019-04-27T02:03:59.065Z,1000.67
2019-04-27T02:04:59.385Z,1000.71
2019-04-27T02:05:59.353Z,1000.70
2019-04-27T02:06:59.043Z,1000.73
2019-04-27T02:07:59.218Z,1000.62
2019-04-27T02:08:59.521Z,1000.70
2019-04-27T02:09:58.951Z,1000.66
2019-04-27T02:10:59.456Z,1000.59
2019-04-27T02:11:59.150Z,1000.65
2019-04-27T02:12:58.740Z,1000.64
2019-04-27T02:14:05.562Z,1000.62
2019-04-27T02:14:58.943Z,1000.65
2019-04-27T02:15:58.877Z,1000.61
2019-04-27T02:16:59.515Z,1000.64
2019-04-27T02:17:59.666Z,1000.64
2019-04-27T02:18:58.661Z,1000.65
2019-04-27T02:19:59.526Z,1000.61
2019-04-27T02:20:59.123Z,1000.60
2019-04-27T02:21:59.764Z,1000.59
2019-04-27T02:22:58.789Z,1000.56
2019-04-27T02:23:59.800Z,1000.59
2019-04-27T02:24:59.112Z,1000.62
2019-04-27T02:25:58.682Z,1000.60
2019-04-27T02:26:58.777Z,1000.65
2019-04-27T02:27:59.272Z,1000.60
2019-04-27T02:28:58.567Z,1000.60
2019-04-27T02:29:59.209Z,1000.55
2019-04-27T02:30:58.340Z,1000.53
2019-04-27T02:32:02.705Z,1000.52
2019-04-27T02:32:59.307Z,1000.54
2019-04-27T02:33:59.526Z,1000.48
2019-04-27T02:35:00.108Z,1000.45
2019-04-27T02:36:00.289Z,1000.40
2019-04-27T02:36:59.544Z,1000.44
2019-04-27T02:38:00.414Z,1000.40
2019-04-27T02:38:59.590Z,1000.38
2019-04-27T02:40:00.122Z,1000.32
2019-04-27T02:40:59.867Z,1000.29
2019-04-27T02:42:00.199Z,1000.36
2019-04-27T02:42:59.810Z,1000.28
2019-04-27T02:43:59.673Z,1000.22
2019-04-27T02:44:59.746Z,1000.33
2019-04-27T02:46:00.343Z,1000.35
2019-04-27T02:47:00.350Z,1000.32
2019-04-27T02:47:59.849Z,1000.32
2019-04-27T02:49:03.107Z,1000.30
2019-04-27T02:50:00.663Z,1000.26
2019-04-27T02:50:59.850Z,1000.31
2019-04-27T02:51:59.524Z,1000.31
2019-04-27T02:52:59.913Z,1000.26
2019-04-27T02:54:00.195Z,1000.31
2019-04-27T02:54:59.331Z,1000.38
2019-04-27T02:55:59.518Z,1000.33
2019-04-27T02:56:59.384Z,1000.27
2019-04-27T02:57:59.844Z,1000.28
2019-04-27T02:58:59.531Z,1000.21
2019-04-27T03:00:00.043Z,1000.23
2019-04-27T03:00:59.379Z,1000.21
2019-04-27T03:02:00.559Z,1000.15
2019-04-27T03:02:59.794Z,1000.19
2019-04-27T03:04:00.130Z,1000.20
2019-04-27T03:05:00.244Z,1000.15
2019-04-27T03:05:59.826Z,1000.20
2019-04-27T03:07:00.111Z,1000.21
2019-04-27T03:07:59.713Z,1000.21
2019-04-27T03:08:59.996Z,1000.19
2019-04-27T03:09:59.614Z,1000.17
2019-04-27T03:10:57.854Z,1000.13
2019-04-27T03:11:59.486Z,1000.14
2019-04-27T03:13:00.019Z,1000.15
2019-04-27T03:13:59.879Z,1000.18
2019-04-27T03:14:59.428Z,1000.14
2019-04-27T03:16:00.251Z,1000.11
2019-04-27T03:17:00.216Z,1000.05
2019-04-27T03:17:59.678Z,1000.17
2019-04-27T03:19:11.406Z,1000.10
2019-04-27T03:19:59.739Z,1000.10
2019-04-27T03:21:00.186Z,1000.06
2019-04-27T03:21:59.281Z,1000.01
2019-04-27T03:23:00.045Z,1000.08
2019-04-27T03:24:00.069Z,1000.07
2019-04-27T03:24:59.907Z,1000.11
2019-04-27T03:26:00.153Z,1000.10
2019-04-27T03:26:59.984Z,1000.01
2019-04-27T03:28:00.096Z,999.97
2019-04-27T03:28:59.897Z,1000.02
2019-04-27T03:29:59.672Z,1000.03
2019-04-27T03:31:02.012Z,1000.00
2019-04-27T03:32:02.028Z,999.97
2019-04-27T03:33:02.758Z,999.94
2019-04-27T03:34:04.495Z,999.95
2019-04-27T03:35:02.748Z,999.93
2019-04-27T03:36:02.056Z,999.90
2019-04-27T03:36:59.779Z,1000.00
2019-04-27T03:38:00.326Z,999.93
2019-04-27T03:38:59.921Z,999.87
2019-04-27T03:39:59.959Z,999.92
2019-04-27T03:40:57.500Z,999.97
2019-04-27T03:42:00.063Z,999.91
2019-04-27T03:42:59.577Z,999.84
2019-04-27T03:43:59.521Z,999.86
2019-04-27T03:45:00.359Z,999.80
2019-04-27T03:46:00.212Z,999.86
2019-04-27T03:46:59.508Z,999.83
2019-04-27T03:47:57.419Z,999.80
2019-04-27T03:48:59.873Z,999.86
2019-04-27T03:49:59.858Z,999.87
2019-04-27T03:50:59.479Z,999.79
2019-04-27T03:51:57.371Z,999.78
2019-04-27T03:52:57.361Z,999.87
2019-04-27T03:53:57.483Z,999.77
2019-04-27T03:54:59.706Z,999.83
2019-04-27T03:55:59.817Z,999.89
2019-04-27T03:56:59.066Z,999.77
2019-04-27T03:57:57.299Z,999.81
2019-04-27T03:58:59.656Z,999.78
2019-04-27T03:59:59.671Z,999.72
2019-04-27T04:00:59.891Z,999.80
2019-04-27T04:01:59.050Z,999.82
2019-04-27T04:02:57.244Z,999.78
2019-04-27T04:03:59.749Z,999.88
2019-04-27T04:04:59.607Z,999.78
2019-04-27T04:05:57.209Z,999.77
2019-04-27T04:06:59.613Z,999.83
2019-04-27T04:07:57.187Z,999.73
2019-04-27T04:08:59.889Z,999.70
2019-04-27T04:09:57.159Z,999.68
2019-04-27T04:10:59.536Z,999.73
2019-04-27T04:11:59.167Z,999.71
2019-04-27T04:12:57.138Z,999.66
2019-04-27T04:13:57.113Z,999.67
2019-04-27T04:14:59.624Z,999.74
2019-04-27T04:15:57.092Z,999.60
2019-04-27T04:16:59.998Z,999.70
2019-04-27T04:17:59.467Z,999.61
2019-04-27T04:18:57.061Z,999.67
2019-04-27T04:20:00.291Z,999.69
2019-04-27T04:20:57.035Z,999.67
2019-04-27T04:21:57.023Z,999.66
2019-04-27T04:22:57.010Z,999.60
2019-04-27T04:23:57.002Z,999.62
2019-04-27T04:24:57.012Z,999.65
2019-04-27T04:25:59.517Z,999.68
2019-04-27T04:26:56.962Z,999.66
2019-04-27T04:27:56.952Z,999.64
2019-04-27T04:28:56.985Z,999.66
2019-04-27T04:29:59.233Z,999.65
2019-04-27T04:30:56.915Z,999.59
2019-04-27T04:31:56.903Z,999.58
2019-04-27T04:32:56.892Z,999.58
2019-04-27T04:33:59.534Z,999.56
2019-04-27T04:34:56.892Z,999.54
2019-04-27T04:35:56.853Z,999.58
2019-04-27T04:36:56.845Z,999.57
2019-04-27T04:37:56.833Z,999.52
2019-04-27T04:38:56.826Z,999.56
2019-04-27T04:39:56.828Z,999.58
2019-04-27T04:40:59.082Z,999.56
2019-04-27T04:41:59.462Z,999.54
2019-04-27T04:42:56.772Z,999.50
2019-04-27T04:43:56.767Z,999.57
2019-04-27T04:44:56.773Z,999.52
2019-04-27T04:45:56.738Z,999.49
2019-04-27T04:46:56.732Z,999.46
2019-04-27T04:47:56.716Z,999.43
2019-04-27T04:48:56.706Z,999.47
2019-04-27T04:50:08.618Z,999.45
2019-04-27T04:50:59.870Z,999.42
2019-04-27T04:51:59.258Z,999.47
2019-04-27T04:52:56.652Z,999.52
2019-04-27T04:53:59.555Z,999.47
2019-04-27T04:54:56.651Z,999.50
2019-04-27T04:55:56.620Z,999.47
2019-04-27T04:56:56.607Z,999.54
2019-04-27T04:57:56.598Z,999.50
2019-04-27T04:58:56.583Z,999.51
2019-04-27T04:59:56.593Z,999.39
2019-04-27T05:00:56.561Z,999.53
2019-04-27T05:01:56.548Z,999.43
2019-04-27T05:02:56.536Z,999.44
2019-04-27T05:03:56.524Z,999.42
2019-04-27T05:04:56.533Z,999.40
2019-04-27T05:05:56.504Z,999.41
2019-04-27T05:06:56.488Z,999.46
2019-04-27T05:07:56.478Z,999.44
2019-04-27T05:08:56.470Z,999.48
2019-04-27T05:09:56.475Z,999.46
2019-04-27T05:10:56.441Z,999.45
2019-04-27T05:11:56.429Z,999.51
2019-04-27T05:12:56.416Z,999.52
2019-04-27T05:13:56.408Z,999.46
2019-04-27T05:14:56.394Z,999.48
2019-04-27T05:15:56.400Z,999.46
2019-04-27T05:16:56.371Z,999.45
2019-04-27T05:17:56.359Z,999.52
2019-04-27T05:18:56.345Z,999.44
2019-04-27T05:19:56.338Z,999.48
2019-04-27T05:20:56.343Z,999.49
2019-04-27T05:21:56.313Z,999.48
2019-04-27T05:22:56.302Z,999.48
2019-04-27T05:23:56.286Z,999.56
2019-04-27T05:24:56.278Z,999.56
2019-04-27T05:25:56.283Z,999.65
2019-04-27T05:26:56.258Z,999.54
2019-04-27T05:27:56.248Z,999.67
2019-04-27T05:28:56.248Z,999.65
2019-04-27T05:29:56.218Z,999.63
2019-04-27T05:30:56.225Z,999.67
2019-04-27T05:31:56.199Z,999.65
2019-04-27T05:32:56.184Z,999.62
2019-04-27T05:33:56.173Z,999.66
2019-04-27T05:34:56.162Z,999.71
2019-04-27T05:35:56.168Z,999.66
2019-04-27T05:36:56.138Z,999.65
2019-04-27T05:37:56.127Z,999.66
2019-04-27T05:38:56.116Z,999.65
2019-04-27T05:39:56.103Z,999.59
2019-04-27T05:40:56.108Z,999.64
2019-04-27T05:41:56.079Z,999.69
2019-04-27T05:42:56.290Z,999.66
2019-04-27T05:43:56.056Z,999.58
2019-04-27T05:44:56.046Z,999.60
2019-04-27T05:45:59.388Z,999.63
2019-04-27T05:46:56.026Z,999.60
2019-04-27T05:47:56.011Z,999.63
2019-04-27T05:49:01.641Z,999.66
2019-04-27T05:49:58.819Z,999.82
2019-04-27T05:50:58.920Z,999.59
2019-04-27T05:51:56.983Z,999.62
2019-04-27T05:52:55.958Z,999.62
2019-04-27T05:53:55.940Z,999.64
2019-04-27T05:54:55.929Z,999.58
2019-04-27T05:55:56.006Z,999.58
2019-04-27T05:56:55.931Z,999.50
2019-04-27T05:57:55.896Z,999.65
2019-04-27T05:58:55.885Z,999.55
2019-04-27T05:59:55.874Z,999.58
2019-04-27T06:00:55.861Z,999.52
2019-04-27T06:01:55.868Z,999.51
2019-04-27T06:02:55.850Z,999.56
2019-04-27T06:03:55.827Z,999.56
2019-04-27T06:04:55.817Z,999.52
2019-04-27T06:05:55.807Z,999.57
2019-04-27T06:06:55.828Z,999.53
2019-04-27T06:07:55.782Z,999.48
2019-04-27T06:08:55.773Z,999.49
2019-04-27T06:09:55.759Z,999.46
2019-04-27T06:10:55.746Z,999.41
2019-04-27T06:11:55.753Z,999.44
2019-04-27T06:12:55.726Z,999.45
2019-04-27T06:13:55.715Z,999.49
2019-04-27T06:14:55.701Z,999.45
2019-04-27T06:15:55.691Z,999.50
2019-04-27T06:16:55.699Z,999.40
2019-04-27T06:17:55.667Z,999.43
2019-04-27T06:18:55.659Z,999.46
2019-04-27T06:19:55.644Z,999.51
2019-04-27T06:20:56.028Z,999.41
2019-04-27T06:21:55.651Z,999.38
2019-04-27T06:22:55.612Z,999.47
2019-04-27T06:23:55.601Z,999.42
2019-04-27T06:24:55.586Z,999.39
2019-04-27T06:25:55.579Z,999.35
2019-04-27T06:26:55.590Z,999.37
2019-04-27T06:27:55.556Z,999.41
2019-04-27T06:28:55.544Z,999.31
2019-04-27T06:29:55.531Z,999.36
2019-04-27T06:30:55.521Z,999.33
2019-04-27T06:31:55.513Z,999.34
2019-04-27T06:32:55.515Z,999.32
2019-04-27T06:33:55.484Z,999.36
2019-04-27T06:34:55.474Z,999.32
2019-04-27T06:35:55.461Z,999.36
2019-04-27T06:36:55.451Z,999.33
2019-04-27T06:37:55.462Z,999.27
2019-04-27T06:38:55.428Z,999.29
2019-04-27T06:39:55.418Z,999.29
2019-04-27T06:40:55.407Z,999.25
2019-04-27T06:41:55.420Z,999.29
2019-04-27T06:42:55.382Z,999.34
2019-04-27T06:43:55.371Z,999.34
2019-04-27T06:44:55.358Z,999.36
2019-04-27T06:45:55.349Z,999.29
2019-04-27T06:46:55.335Z,999.26
2019-04-27T06:47:55.344Z,999.23
2019-04-27T06:48:55.313Z,999.21
2019-04-27T06:49:55.299Z,999.22
2019-04-27T06:51:02.702Z,999.22
2019-04-27T06:51:56.279Z,999.34
2019-04-27T06:52:55.321Z,999.23
2019-04-27T06:53:55.256Z,999.25
2019-04-27T06:54:55.242Z,999.26
2019-04-27T06:55:55.235Z,999.24
2019-04-27T06:56:55.243Z,999.21
2019-04-27T06:57:55.210Z,999.22
2019-04-27T06:58:55.199Z,999.25
2019-04-27T06:59:55.186Z,999.37
2019-04-27T07:00:55.183Z,999.22
2019-04-27T07:01:55.164Z,999.24
2019-04-27T07:02:55.493Z,999.25
2019-04-27T07:03:55.140Z,999.17
2019-04-27T07:04:55.132Z,999.27
2019-04-27T07:05:55.117Z,999.30
2019-04-27T07:06:56.248Z,999.33
2019-04-27T07:07:55.117Z,999.26
2019-04-27T07:08:55.298Z,999.15
2019-04-27T07:09:55.069Z,999.14
2019-04-27T07:10:55.065Z,999.26
2019-04-27T07:11:55.044Z,999.17
2019-04-27T07:12:55.052Z,999.15
2019-04-27T07:13:55.021Z,999.15
2019-04-27T07:14:55.177Z,999.14
2019-04-27T07:15:54.999Z,999.15
2019-04-27T07:16:54.987Z,999.12
2019-04-27T07:17:54.998Z,999.22
2019-04-27T07:18:54.965Z,999.15
2019-04-27T07:19:54.954Z,999.21
2019-04-27T07:20:54.942Z,999.19
2019-04-27T07:21:54.930Z,999.19
2019-04-27T07:22:54.948Z,999.20
2019-04-27T07:23:54.913Z,999.18
2019-04-27T07:24:54.897Z,999.16
2019-04-27T07:25:54.884Z,999.20
2019-04-27T07:26:54.886Z,999.18
2019-04-27T07:27:54.882Z,999.26
2019-04-27T07:28:54.854Z,999.25
2019-04-27T07:29:54.841Z,999.28
2019-04-27T07:30:54.838Z,999.17
2019-04-27T07:31:54.817Z,999.19
2019-04-27T07:32:54.826Z,999.21
2019-04-27T07:33:54.794Z,999.39
2019-04-27T07:34:55.347Z,999.28
2019-04-27T07:35:54.780Z,999.22
2019-04-27T07:36:54.759Z,999.21
2019-04-27T07:37:54.769Z,999.23
2019-04-27T07:38:54.737Z,999.28
2019-04-27T07:39:54.727Z,999.33
2019-04-27T07:40:54.715Z,999.33
2019-04-27T07:41:54.705Z,999.27
2019-04-27T07:42:54.714Z,999.32
2019-04-27T07:43:54.682Z,999.32
2019-04-27T07:44:54.667Z,999.29
2019-04-27T07:45:54.659Z,999.31
2019-04-27T07:46:54.643Z,999.31
2019-04-27T07:47:54.633Z,999.29
2019-04-27T07:48:54.635Z,999.30
2019-04-27T07:49:54.605Z,999.24
2019-04-27T07:50:54.596Z,999.21
2019-04-27T07:51:54.581Z,999.26
2019-04-27T07:52:54.573Z,999.24
2019-04-27T07:53:54.578Z,999.20
2019-04-27T07:54:54.564Z,999.21
2019-04-27T07:55:54.540Z,999.18
2019-04-27T07:56:54.523Z,999.19
2019-04-27T07:57:54.515Z,999.20
2019-04-27T07:58:54.520Z,999.11
2019-04-27T07:59:54.493Z,999.18
2019-04-27T08:00:54.478Z,999.14
2019-04-27T08:01:54.465Z,999.14
2019-04-27T08:02:54.454Z,999.11
2019-04-27T08:03:54.462Z,999.09
2019-04-27T08:04:54.432Z,999.21
2019-04-27T08:05:54.419Z,999.11
2019-04-27T08:06:54.407Z,999.10
2019-04-27T08:07:54.397Z,999.14
2019-04-27T08:08:54.408Z,999.08
2019-04-27T08:09:54.375Z,999.14
2019-04-27T08:10:54.364Z,999.05
2019-04-27T08:11:54.350Z,999.12
2019-04-27T08:12:54.341Z,999.08
2019-04-27T08:13:54.345Z,999.03
2019-04-27T08:15:01.408Z,999.07
2019-04-27T08:15:54.304Z,999.14
2019-04-27T08:16:54.293Z,999.03
2019-04-27T08:17:54.280Z,999.05
2019-04-27T08:18:54.294Z,998.99
2019-04-27T08:19:54.258Z,999.10
2019-04-27T08:20:56.918Z,999.04
2019-04-27T08:21:54.238Z,999.06
2019-04-27T08:22:54.225Z,999.07
2019-04-27T08:23:54.230Z,999.08
2019-04-27T08:24:54.202Z,999.08
2019-04-27T08:25:54.191Z,999.05
2019-04-27T08:26:54.181Z,999.04
2019-04-27T08:27:54.167Z,999.04
2019-04-27T08:28:54.173Z,999.02
2019-04-27T08:29:54.146Z,999.05
2019-04-27T08:30:54.132Z,999.07
2019-04-27T08:31:54.123Z,998.97
2019-04-27T08:32:54.113Z,999.01
2019-04-27T08:33:54.123Z,998.99
2019-04-27T08:34:54.085Z,998.96
2019-04-27T08:35:54.073Z,999.02
2019-04-27T08:36:54.061Z,998.94
2019-04-27T08:37:54.049Z,998.94
2019-04-27T08:38:54.053Z,998.94
2019-04-27T08:39:54.025Z,998.84
2019-04-27T08:40:54.012Z,998.91
2019-04-27T08:41:54.001Z,998.94
2019-04-27T08:42:55.709Z,998.90
2019-04-27T08:43:53.995Z,998.97
2019-04-27T08:44:53.969Z,998.99
2019-04-27T08:45:53.954Z,998.91
2019-04-27T08:46:53.941Z,998.90
2019-04-27T08:47:53.931Z,998.94
2019-04-27T08:48:53.942Z,998.97
2019-04-27T08:49:53.907Z,998.91
2019-04-27T08:50:53.897Z,998.95
2019-04-27T08:51:58.839Z,998.89
2019-04-27T08:52:54.873Z,998.85
2019-04-27T08:53:53.883Z,998.84
2019-04-27T08:54:53.850Z,998.83
2019-04-27T08:55:53.838Z,998.87
2019-04-27T08:56:53.826Z,998.89
2019-04-27T08:57:53.813Z,998.81
2019-04-27T08:58:53.805Z,998.81
2019-04-27T08:59:53.808Z,998.84
2019-04-27T09:00:53.778Z,998.84
2019-04-27T09:01:53.770Z,998.79
2019-04-27T09:02:53.856Z,998.82
2019-04-27T09:03:53.746Z,998.82
2019-04-27T09:04:53.758Z,998.78
2019-04-27T09:05:53.726Z,998.83
2019-04-27T09:06:53.713Z,998.84
2019-04-27T09:07:53.699Z,998.81
2019-04-27T09:08:53.689Z,998.83
2019-04-27T09:09:53.692Z,998.74
2019-04-27T09:10:53.662Z,998.79
2019-04-27T09:11:53.651Z,998.77
2019-04-27T09:12:53.940Z,998.79
2019-04-27T09:13:53.629Z,998.72
2019-04-27T09:14:53.634Z,998.68
2019-04-27T09:15:53.606Z,998.80
2019-04-27T09:17:00.242Z,998.74
2019-04-27T09:17:54.586Z,998.71
2019-04-27T09:18:53.571Z,998.67
2019-04-27T09:19:53.579Z,998.62
2019-04-27T09:20:53.546Z,998.66
2019-04-27T09:21:53.536Z,998.67
2019-04-27T09:22:53.524Z,998.70
2019-04-27T09:23:53.514Z,998.64
2019-04-27T09:24:53.517Z,998.76
2019-04-27T09:25:53.490Z,998.65
2019-04-27T09:26:53.496Z,998.68
2019-04-27T09:27:53.470Z,998.71
2019-04-27T09:28:53.452Z,998.69
2019-04-27T09:29:53.464Z,998.76
2019-04-27T09:30:53.434Z,998.61
2019-04-27T09:31:53.419Z,998.67
2019-04-27T09:32:53.407Z,998.67
2019-04-27T09:33:53.395Z,998.66
2019-04-27T09:34:53.399Z,998.65
2019-04-27T09:35:53.369Z,998.68
2019-04-27T09:36:53.359Z,998.65
2019-04-27T09:37:53.348Z,998.74
2019-04-27T09:38:53.339Z,998.64
2019-04-27T09:39:53.340Z,998.61
2019-04-27T09:40:53.307Z,998.57
2019-04-27T09:41:53.295Z,998.63
2019-04-27T09:42:53.287Z,998.59
2019-04-27T09:43:53.274Z,998.70
2019-04-27T09:44:53.280Z,998.69
2019-04-27T09:45:53.249Z,998.73
2019-04-27T09:46:53.236Z,998.62
2019-04-27T09:47:53.225Z,998.56
2019-04-27T09:48:53.214Z,998.64
2019-04-27T09:49:53.226Z,998.65
2019-04-27T09:50:53.192Z,998.66
2019-04-27T09:51:53.179Z,998.66
2019-04-27T09:52:53.167Z,998.65
2019-04-27T09:53:53.153Z,998.63
2019-04-27T09:54:53.142Z,998.60
2019-04-27T09:55:53.157Z,998.55
2019-04-27T09:56:53.118Z,998.56
2019-04-27T09:57:53.105Z,998.56
2019-04-27T09:58:53.094Z,998.55
2019-04-27T09:59:53.098Z,998.48
2019-04-27T10:00:53.067Z,998.43
2019-04-27T10:01:53.055Z,998.41
2019-04-27T10:02:53.045Z,998.39
2019-04-27T10:03:53.033Z,998.36
2019-04-27T10:04:53.050Z,998.44
2019-04-27T10:05:53.007Z,998.37
2019-04-27T10:06:53.000Z,998.38
2019-04-27T10:07:52.982Z,998.43
2019-04-27T10:08:52.972Z,998.36
2019-04-27T10:09:52.963Z,998.46
2019-04-27T10:10:52.966Z,998.44
2019-04-27T10:11:52.937Z,998.40
2019-04-27T10:12:52.925Z,998.41
2019-04-27T10:13:52.914Z,998.45
2019-04-27T10:14:52.901Z,998.33
2019-04-27T10:15:52.908Z,998.37
2019-04-27T10:16:52.879Z,998.41
2019-04-27T10:17:52.871Z,998.35
2019-04-27T10:18:52.856Z,998.31
2019-04-27T10:19:52.842Z,998.37
2019-04-27T10:20:59.765Z,998.32
2019-04-27T10:21:53.820Z,998.33
2019-04-27T10:22:52.910Z,998.39
2019-04-27T10:23:52.796Z,998.26
2019-04-27T10:24:52.787Z,998.28
2019-04-27T10:25:52.790Z,998.35
2019-04-27T10:26:52.760Z,998.25
2019-04-27T10:27:52.753Z,998.27
2019-04-27T10:28:52.737Z,998.16
2019-04-27T10:29:52.728Z,998.19
2019-04-27T10:30:52.735Z,998.23
2019-04-27T10:31:52.702Z,998.29
2019-04-27T10:32:52.692Z,998.49
2019-04-27T10:33:52.680Z,998.84
2019-04-27T10:34:52.668Z,998.75
2019-04-27T10:35:52.674Z,998.76
2019-04-27T10:36:52.648Z,998.75
2019-04-27T10:37:52.632Z,998.84
2019-04-27T10:38:52.620Z,998.90
2019-04-27T10:39:52.614Z,998.87
2019-04-27T10:40:52.616Z,998.88
2019-04-27T10:41:52.585Z,998.85
2019-04-27T10:42:52.573Z,998.92
2019-04-27T10:43:52.567Z,998.85
2019-04-27T10:44:52.550Z,998.83
2019-04-27T10:45:52.560Z,998.88
2019-04-27T10:46:52.528Z,998.92
2019-04-27T10:47:52.516Z,998.90
2019-04-27T10:48:52.505Z,998.97
2019-04-27T10:49:52.492Z,999.06
2019-04-27T10:50:52.503Z,999.09
2019-04-27T10:51:52.466Z,999.06
2019-04-27T10:52:53.879Z,998.97
2019-04-27T10:53:52.444Z,998.98
2019-04-27T10:54:52.433Z,998.96
2019-04-27T10:55:52.437Z,998.95
2019-04-27T10:56:52.408Z,998.98
2019-04-27T10:57:52.395Z,998.95
2019-04-27T10:58:52.384Z,998.97
2019-04-27T10:59:52.372Z,998.93
2019-04-27T11:00:52.382Z,999.03
2019-04-27T11:01:52.350Z,999.02
2019-04-27T11:02:52.337Z,999.01
2019-04-27T11:03:52.326Z,999.08
2019-04-27T11:04:52.311Z,999.07
2019-04-27T11:05:52.299Z,999.13
2019-04-27T11:06:52.305Z,999.06
2019-04-27T11:07:52.276Z,998.98
2019-04-27T11:08:52.269Z,999.07
2019-04-27T11:09:52.260Z,999.03
2019-04-27T11:10:52.241Z,999.05
2019-04-27T11:11:52.249Z,999.06
2019-04-27T11:12:52.218Z,999.09
2019-04-27T11:13:52.208Z,999.08
2019-04-27T11:14:52.196Z,999.14
2019-04-27T11:15:52.185Z,999.11
2019-04-27T11:16:52.192Z,999.10
2019-04-27T11:17:52.162Z,999.12
2019-04-27T11:18:52.150Z,999.09
2019-04-27T11:19:52.137Z,999.13
2019-04-27T11:20:52.124Z,999.06
2019-04-27T11:21:52.131Z,999.12
2019-04-27T11:22:52.103Z,999.13
2019-04-27T11:23:52.092Z,999.19
2019-04-27T11:24:52.080Z,999.14
2019-04-27T11:25:52.068Z,999.18
2019-04-27T11:26:52.073Z,999.08
2019-04-27T11:27:52.044Z,999.13
2019-04-27T11:28:52.033Z,999.17
2019-04-27T11:29:52.020Z,999.16
2019-04-27T11:30:52.009Z,999.25
2019-04-27T11:31:52.015Z,999.22
2019-04-27T11:32:54.349Z,999.14
2019-04-27T11:33:51.982Z,999.22
2019-04-27T11:34:51.963Z,999.21
2019-04-27T11:35:51.957Z,999.25
2019-04-27T11:36:51.957Z,999.17
2019-04-27T11:37:51.926Z,999.20
2019-04-27T11:38:51.915Z,999.16
2019-04-27T11:39:51.904Z,999.15
2019-04-27T11:40:51.891Z,999.25
2019-04-27T11:41:51.901Z,999.14
2019-04-27T11:42:51.879Z,999.25
2019-04-27T11:43:51.959Z,999.18
2019-04-27T11:44:51.846Z,999.17
2019-04-27T11:45:51.835Z,999.14
2019-04-27T11:46:51.839Z,999.22
2019-04-27T11:47:51.810Z,999.27
2019-04-27T11:48:51.797Z,999.21
2019-04-27T11:49:51.788Z,999.19
2019-04-27T11:50:51.775Z,999.20
2019-04-27T11:51:51.787Z,999.20
2019-04-27T11:52:51.753Z,999.19
2019-04-27T11:53:51.741Z,999.22
2019-04-27T11:54:51.729Z,999.25
2019-04-27T11:55:51.718Z,999.23
2019-04-27T11:56:51.726Z,999.30
2019-04-27T11:57:51.695Z,999.32
2019-04-27T11:58:51.682Z,999.31
2019-04-27T11:59:51.671Z,999.31
2019-04-27T12:00:51.659Z,999.38
2019-04-27T12:01:51.670Z,999.43
2019-04-27T12:02:51.640Z,999.41
2019-04-27T12:03:51.623Z,999.46
2019-04-27T12:04:51.614Z,999.43
2019-04-27T12:05:51.606Z,999.43
2019-04-27T12:06:51.612Z,999.51
2019-04-27T12:07:51.578Z,999.48
2019-04-27T12:08:51.567Z,999.55
2019-04-27T12:09:51.558Z,999.55
2019-04-27T12:10:51.544Z,999.59
2019-04-27T12:11:51.554Z,999.55
2019-04-27T12:12:51.520Z,999.57
2019-04-27T12:13:51.508Z,999.60
2019-04-27T12:14:51.495Z,999.64
2019-04-27T12:15:51.484Z,999.60
2019-04-27T12:16:51.470Z,999.61
2019-04-27T12:17:51.481Z,999.55
2019-04-27T12:18:51.447Z,999.60
2019-04-27T12:19:51.433Z,999.74
2019-04-27T12:20:51.423Z,999.63